Time;durP1;ratioP1;P1;durP2;ratioP2;P2;SDS_P1;SDS_P2;PMS_P1;PMS_P2;Temp;Humidity;BMP_temperature;BMP_pressure;BME280_temperature;BME280_humidity;BME280_pressure;Samples;Min_cycle;Max_cycle;Signal;HPM_P1;HPM_P2
2023/10/22 00:04:44;;;;;;;3.80;0.60;;;;;;;12.07;nan;99382.56;10317810;28;20412;-79
2023/10/22 00:09:45;;;;;;;1.93;0.67;;;;;;;12.06;nan;99380.78;10343780;28;20086;-79
2023/10/22 00:14:46;;;;;;;2.78;0.80;;;;;;;12.02;nan;99401.72;10311867;28;20054;-80
2023/10/22 00:19:46;;;;;;;4.15;0.65;;;;;;;12.00;nan;99407.81;10321567;28;20503;-78
2023/10/22 00:24:47;;;;;;;1.63;0.65;;;;;;;12.06;nan;99407.91;10309641;28;20128;-78
2023/10/22 00:29:47;;;;;;;2.80;0.60;;;;;;;12.01;nan;99406.94;10312694;28;20413;-78
2023/10/22 00:34:48;;;;;;;2.30;0.82;;;;;;;12.02;nan;99403.47;10307663;28;21851;-79
2023/10/22 00:39:49;;;;;;;5.25;3.42;;;;;;;12.02;nan;99411.34;10327402;28;20041;-81
2023/10/22 00:44:49;;;;;;;4.20;1.30;;;;;;;12.00;nan;99423.53;10314241;28;20060;-80
2023/10/22 00:49:49;;;;;;;6.25;0.95;;;;;;;11.93;nan;99409.38;10308818;28;20072;-80
2023/10/22 00:54:51;;;;;;;5.63;2.13;;;;;;;11.85;nan;99422.34;10288915;28;20057;-82
2023/10/22 00:59:52;;;;;;;9.25;1.38;;;;;;;11.85;nan;99416.22;10333487;28;20045;-82
2023/10/22 01:04:53;;;;;;;4.15;1.05;;;;;;;11.77;nan;99418.69;10334853;28;20038;-82
2023/10/22 01:09:54;;;;;;;2.60;0.70;;;;;;;11.73;nan;99425.59;10309253;28;20037;-82
2023/10/22 01:14:54;;;;;;;5.43;1.95;;;;;;;11.71;nan;99426.44;10311688;28;20155;-80
2023/10/22 01:19:55;;;;;;;2.75;0.82;;;;;;;11.67;nan;99433.34;10340390;28;20037;-81
2023/10/22 01:24:57;;;;;;;4.05;0.65;;;;;;;11.44;nan;99438.13;10338948;28;20502;-82
2023/10/22 01:29:57;;;;;;;4.63;1.05;;;;;;;11.31;nan;99429.09;10358377;28;20112;-82
2023/10/22 01:34:58;;;;;;;3.47;0.70;;;;;;;11.24;nan;99432.44;10370755;28;20081;-82
2023/10/22 01:39:59;;;;;;;2.38;1.05;;;;;;;11.13;nan;99435.72;10359976;28;20065;-82
2023/10/22 01:45:00;;;;;;;3.07;0.70;;;;;;;11.19;nan;99444.56;10340006;28;20038;-82
2023/10/22 01:50:01;;;;;;;4.05;0.65;;;;;;;11.25;nan;99434.22;10358342;28;20132;-81
2023/10/22 01:55:02;;;;;;;2.90;0.60;;;;;;;11.45;nan;99466.09;10357381;28;20041;-82
2023/10/22 02:00:03;;;;;;;3.63;0.60;;;;;;;11.63;nan;99455.09;10346328;28;20470;-81
2023/10/22 02:05:04;;;;;;;1.23;0.50;;;;;;;11.75;nan;99475.44;10357419;28;20912;-81
2023/10/22 02:10:06;;;;;;;4.30;1.27;;;;;;;11.69;nan;99467.47;10360379;28;20029;-82
2023/10/22 02:15:07;;;;;;;2.65;0.60;;;;;;;11.68;nan;99484.91;10356686;28;20042;-82
2023/10/22 02:20:11;;;;;;;2.90;0.70;;;;;;;11.66;nan;99501.47;10387815;28;20520;-81
2023/10/22 02:25:12;;;;;;;3.78;0.77;;;;;;;11.67;nan;99514.59;10393167;28;20038;-81
2023/10/22 02:30:12;;;;;;;2.75;0.38;;;;;;;11.69;nan;99515.50;10363635;28;20120;-83
2023/10/22 02:35:14;;;;;;;6.60;1.42;;;;;;;11.72;nan;99526.06;10346627;28;20050;-80
2023/10/22 02:40:14;;;;;;;3.03;0.93;;;;;;;11.72;nan;99536.53;10364102;28;20064;-83
2023/10/22 02:45:15;;;;;;;2.63;0.60;;;;;;;11.70;nan;99542.63;10366396;28;20041;-80
2023/10/22 02:50:15;;;;;;;1.15;0.50;;;;;;;11.68;nan;99555.66;10363990;28;20125;-78
2023/10/22 02:55:16;;;;;;;2.88;0.55;;;;;;;11.65;nan;99566.09;10365752;28;20570;-81
2023/10/22 03:00:16;;;;;;;0.77;0.40;;;;;;;11.64;nan;99573.94;10346078;28;20038;-80
2023/10/22 03:05:17;;;;;;;2.03;0.40;;;;;;;11.66;nan;99572.22;10347992;28;20045;-81
2023/10/22 03:10:17;;;;;;;1.27;0.50;;;;;;;11.62;nan;99584.38;10363044;28;20038;-81
2023/10/22 03:15:18;;;;;;;3.08;0.60;;;;;;;11.62;nan;99588.72;10361883;28;20062;-81
2023/10/22 03:20:19;;;;;;;1.80;0.40;;;;;;;11.57;nan;99600.00;10345438;28;20554;-79
2023/10/22 03:25:21;;;;;;;8.98;1.38;;;;;;;11.55;nan;99603.41;10364769;28;20441;-81
2023/10/22 03:30:22;;;;;;;0.98;0.40;;;;;;;11.52;nan;99606.88;10344333;28;20061;-80
2023/10/22 03:35:22;;;;;;;2.78;0.57;;;;;;;11.57;nan;99609.56;10362513;28;20444;-81
2023/10/22 03:40:23;;;;;;;2.92;0.50;;;;;;;11.58;nan;99620.09;10345734;28;20085;-81
2023/10/22 03:45:23;;;;;;;1.40;0.60;;;;;;;11.51;nan;99630.38;10363012;28;20125;-80
2023/10/22 03:50:24;;;;;;;1.20;0.40;;;;;;;11.48;nan;99648.66;10365708;28;20042;-81
2023/10/22 03:55:24;;;;;;;2.10;0.50;;;;;;;11.49;nan;99650.44;10360945;28;20187;-81
2023/10/22 04:00:25;;;;;;;0.55;0.40;;;;;;;11.42;nan;99657.28;10344131;28;20148;-81
2023/10/22 04:05:25;;;;;;;1.65;0.63;;;;;;;11.43;nan;99670.38;10363962;28;20125;-81
2023/10/22 04:10:26;;;;;;;0.30;0.30;;;;;;;11.41;nan;99679.06;10390983;28;20041;-81
2023/10/22 04:15:27;;;;;;;1.67;0.60;;;;;;;11.40;nan;99686.03;10378777;28;20466;-81
2023/10/22 04:20:30;;;;;;;2.13;0.60;;;;;;;11.32;nan;99692.81;10359787;28;20045;-81
2023/10/22 04:25:38;;;;;;;1.33;0.70;;;;;;;11.27;nan;99710.13;10374346;28;20045;-80
2023/10/22 04:30:43;;;;;;;3.17;0.90;;;;;;;11.17;nan;99724.75;10382514;28;20044;-82
2023/10/22 04:35:43;;;;;;;3.92;0.70;;;;;;;11.12;nan;99734.19;10360394;28;20049;-82
2023/10/22 04:40:44;;;;;;;1.27;1.13;;;;;;;11.02;nan;99744.41;10359128;28;20128;-81
2023/10/22 04:45:48;;;;;;;2.38;0.68;;;;;;;10.93;nan;99757.25;10361969;28;20120;-82
2023/10/22 04:50:49;;;;;;;1.65;1.00;;;;;;;10.92;nan;99765.94;10342012;28;20042;-82
2023/10/22 04:55:56;;;;;;;1.63;0.60;;;;;;;10.84;nan;99775.31;10359745;28;20034;-81
2023/10/22 05:00:57;;;;;;;1.35;0.57;;;;;;;10.79;nan;99784.75;10340230;28;20045;-81
2023/10/22 05:05:57;;;;;;;3.00;0.70;;;;;;;10.78;nan;99790.84;10361865;28;20096;-85
2023/10/22 05:10:58;;;;;;;1.80;0.80;;;;;;;10.74;nan;99795.06;10339800;28;20571;-81
2023/10/22 05:15:58;;;;;;;1.45;0.82;;;;;;;10.68;nan;99807.97;10358862;28;20041;-82
2023/10/22 05:21:04;;;;;;;5.47;0.80;;;;;;;10.66;nan;99820.13;10354927;28;20061;-86
2023/10/22 05:26:09;;;;;;;1.08;0.60;;;;;;;10.66;nan;99833.22;10360004;28;20042;-85
2023/10/22 05:31:18;;;;;;;0.98;0.73;;;;;;;10.62;nan;99849.66;10354043;28;20046;-80
2023/10/22 05:36:20;;;;;;;2.08;0.70;;;;;;;10.53;nan;99852.88;10357807;28;20034;-82
2023/10/22 05:41:22;;;;;;;3.33;1.23;;;;;;;10.48;nan;99859.69;10358207;28;20099;-82
2023/10/22 05:46:23;;;;;;;3.00;0.75;;;;;;;10.44;nan;99866.53;10356646;28;20125;-82
2023/10/22 05:51:23;;;;;;;5.47;1.80;;;;;;;10.44;nan;99874.41;10355888;28;20042;-80
2023/10/22 05:56:26;;;;;;;2.05;1.02;;;;;;;10.43;nan;99883.09;10338468;28;20053;-79
2023/10/22 06:01:26;;;;;;;;;;;;;;;10.46;nan;99896.25;10372587;28;20069;-80
2023/10/22 06:06:27;;;;;;;3.03;1.17;;;;;;;10.40;nan;99896.06;10359341;28;19928;-80
2023/10/22 06:11:27;;;;;;;1.08;0.63;;;;;;;10.33;nan;99912.34;10374595;28;20049;-80
2023/10/22 06:16:27;;;;;;;2.05;0.98;;;;;;;10.27;nan;99915.66;10354237;28;20076;-79
2023/10/22 06:21:28;;;;;;;1.92;1.08;;;;;;;10.22;nan;99923.34;10341371;28;20066;-80
2023/10/22 06:26:29;;;;;;;4.90;0.93;;;;;;;10.23;nan;99942.56;10369858;28;20498;-82
2023/10/22 06:31:29;;;;;;;4.47;1.05;;;;;;;10.24;nan;99952.19;10356709;28;20136;-82
2023/10/22 06:36:30;;;;;;;3.08;1.92;;;;;;;10.23;nan;99959.13;10357229;28;20053;-81
2023/10/22 06:41:30;;;;;;;1.45;0.80;;;;;;;10.24;nan;99968.75;10355639;28;20104;-81
2023/10/22 06:46:31;;;;;;;7.15;0.90;;;;;;;10.33;nan;99977.75;10356686;28;20057;-82
2023/10/22 06:51:31;;;;;;;5.78;1.48;;;;;;;10.26;nan;99985.38;10359403;28;20124;-82
2023/10/22 06:56:32;;;;;;;3.40;0.95;;;;;;;10.29;nan;99992.47;10360000;28;20141;-78
2023/10/22 07:01:32;;;;;;;3.38;1.67;;;;;;;10.29;nan;100006.41;10356993;28;20054;-80
2023/10/22 07:06:33;;;;;;;4.63;1.60;;;;;;;10.40;nan;100005.91;10368765;28;20103;-81
2023/10/22 07:11:35;;;;;;;2.50;0.90;;;;;;;10.45;nan;100022.66;10363363;28;20104;-81
2023/10/22 07:16:35;;;;;;;8.20;5.13;;;;;;;10.53;nan;100033.41;10369482;28;20037;-82
2023/10/22 07:21:36;;;;;;;3.45;2.25;;;;;;;10.61;nan;100034.56;10369761;28;20545;-83
2023/10/22 07:26:37;;;;;;;2.85;1.00;;;;;;;10.65;nan;100038.16;10357240;28;20121;-80
2023/10/22 07:31:38;;;;;;;4.05;3.38;;;;;;;10.74;nan;100046.31;10342836;28;20521;-82
2023/10/22 07:36:38;;;;;;;9.35;8.30;;;;;;;10.84;nan;100056.25;10315716;28;20045;-82
2023/10/22 07:41:39;;;;;;;4.40;1.60;;;;;;;11.11;nan;100058.00;10340948;28;20463;-82
2023/10/22 07:46:39;;;;;;;1.38;0.77;;;;;;;11.32;nan;100056.91;10354153;28;20184;-81
2023/10/22 07:51:40;;;;;;;2.33;1.13;;;;;;;11.52;nan;100054.94;10358724;28;20087;-81
2023/10/22 07:56:40;;;;;;;2.38;1.27;;;;;;;11.52;nan;100065.41;10344106;28;20050;-82
2023/10/22 08:01:41;;;;;;;1.73;0.70;;;;;;;11.78;nan;100070.56;10342949;28;20521;-83
2023/10/22 08:06:41;;;;;;;1.52;0.90;;;;;;;12.01;nan;100073.88;10352861;28;20160;-82
2023/10/22 08:11:42;;;;;;;8.18;4.47;;;;;;;12.23;nan;100078.88;10361241;28;20049;-81
2023/10/22 08:16:42;;;;;;;9.15;3.05;;;;;;;12.36;nan;100083.63;10379173;28;20073;-81
2023/10/22 08:21:43;;;;;;;3.13;1.65;;;;;;;12.31;nan;100090.47;10360248;28;20508;-81
2023/10/22 08:26:43;;;;;;;2.90;1.60;;;;;;;12.37;nan;100103.75;10353329;28;20044;-80
2023/10/22 08:31:44;;;;;;;2.63;1.00;;;;;;;12.32;nan;100114.13;10360212;28;20147;-82
2023/10/22 08:36:45;;;;;;;7.20;2.45;;;;;;;12.07;nan;100120.41;10359049;28;20115;-80
2023/10/22 08:41:49;;;;;;;2.83;0.93;;;;;;;11.96;nan;100132.25;10352895;28;20385;-79
2023/10/22 08:46:50;;;;;;;1.77;0.80;;;;;;;11.88;nan;100130.31;10324352;28;20081;-80
2023/10/22 08:51:50;;;;;;;1.30;0.70;;;;;;;11.98;nan;100139.31;10357602;28;20489;-81
2023/10/22 08:56:51;;;;;;;1.63;0.65;;;;;;;12.28;nan;100148.09;10344300;28;20546;-80
2023/10/22 09:01:53;;;;;;;2.15;0.68;;;;;;;12.63;nan;100137.72;10334299;28;20047;-80
2023/10/22 09:06:54;;;;;;;11.27;1.27;;;;;;;12.89;nan;100130.53;10336658;28;20049;-78
2023/10/22 09:11:55;;;;;;;0.90;0.70;;;;;;;13.27;nan;100141.97;10348305;28;20443;-81
2023/10/22 09:16:56;;;;;;;2.65;1.27;;;;;;;13.47;nan;100146.03;10341501;28;20070;-79
2023/10/22 09:21:56;;;;;;;2.92;1.88;;;;;;;13.67;nan;100161.38;10353097;28;20030;-81
2023/10/22 09:26:57;;;;;;;2.58;1.00;;;;;;;13.88;nan;100158.38;10355334;28;20556;-86
2023/10/22 09:32:00;;;;;;;1.23;0.60;;;;;;;14.12;nan;100174.66;10348110;28;20121;-78
2023/10/22 09:37:01;;;;;;;4.93;1.73;;;;;;;14.14;nan;100178.22;10350304;28;20145;-79
2023/10/22 09:42:05;;;;;;;2.22;1.40;;;;;;;13.78;nan;100187.94;10348612;28;20034;-80
2023/10/22 09:47:08;;;;;;;5.28;1.13;;;;;;;13.77;nan;100200.19;10356923;28;20037;-80
2023/10/22 09:52:09;;;;;;;2.88;0.98;;;;;;;13.81;nan;100206.44;10354435;28;20486;-80
2023/10/22 09:57:13;;;;;;;1.98;1.10;;;;;;;14.01;nan;100203.38;10344403;28;20179;-80
2023/10/22 10:02:20;;;;;;;2.25;1.00;;;;;;;14.28;nan;100191.69;10371870;28;20057;-80
2023/10/22 10:07:23;;;;;;;2.75;1.50;;;;;;;14.50;nan;100200.94;10370250;28;20038;-81
2023/10/22 10:12:28;;;;;;;2.45;1.20;;;;;;;14.30;nan;100201.38;10357015;28;20410;-80
2023/10/22 10:17:29;;;;;;;3.22;1.23;;;;;;;14.23;nan;100205.66;10352223;28;20057;-79
2023/10/22 10:22:49;;;;;;;5.22;1.35;;;;;;;14.14;nan;100217.69;10357862;28;20065;-80
2023/10/22 10:27:52;;;;;;;1.52;0.98;;;;;;;14.21;nan;100217.88;10339415;28;20147;-80
2023/10/22 10:32:53;;;;;;;1.80;0.80;;;;;;;14.15;nan;100220.38;10339043;28;20053;-80
2023/10/22 10:38:15;;;;;;;1.65;0.80;;;;;;;14.04;nan;100222.75;10353442;28;20037;-81
2023/10/22 10:43:16;;;;;;;;;;;;;;;14.24;nan;100227.56;10358510;28;20053;-80
2023/10/22 10:48:51;;;;;;;8.45;4.20;;;;;;;14.05;nan;100235.03;10363098;28;19967;-80
2023/10/22 10:54:00;;;;;;;3.17;0.85;;;;;;;14.20;nan;100234.53;10362434;28;20534;-80
2023/10/22 10:59:01;;;;;;;2.65;0.90;;;;;;;13.96;nan;100245.34;10361717;28;20132;-80
2023/10/22 11:04:08;;;;;;;8.02;7.30;;;;;;;13.60;nan;100247.13;10348295;28;20385;-81
2023/10/22 11:09:08;;;;;;;3.30;2.10;;;;;;;13.34;nan;100249.94;10362907;28;20401;-80
2023/10/22 11:14:12;;;;;;;3.25;0.93;;;;;;;13.29;nan;100253.28;10382232;28;20034;-81
2023/10/22 11:19:22;;;;;;;4.13;0.63;;;;;;;13.18;nan;100258.25;10361290;28;20041;-80
2023/10/22 11:24:29;;;;;;;2.72;1.00;;;;;;;13.09;nan;100273.78;10361826;28;20045;-81
2023/10/22 11:29:29;;;;;;;1.70;0.90;;;;;;;13.04;nan;100279.78;10354941;28;20044;-81
2023/10/22 11:34:30;;;;;;;4.40;0.77;;;;;;;13.09;nan;100284.28;10377430;28;20050;-80
2023/10/22 11:39:36;;;;;;;3.30;1.08;;;;;;;13.25;nan;100270.72;10360782;28;20124;-80
2023/10/22 11:44:37;;;;;;;1.73;0.70;;;;;;;13.44;nan;100272.13;10358748;28;20041;-81
2023/10/22 11:49:45;;;;;;;1.17;0.63;;;;;;;13.42;nan;100275.56;10359447;28;20508;-81
2023/10/22 11:54:45;;;;;;;1.08;0.50;;;;;;;13.51;nan;100279.31;10371135;28;20468;-81
2023/10/22 11:59:46;;;;;;;5.82;0.80;;;;;;;14.35;nan;100276.06;10337391;28;20042;-81
2023/10/22 12:04:47;;;;;;;1.50;0.75;;;;;;;18.61;nan;100260.91;10352618;28;20113;-81
2023/10/22 12:09:48;;;;;;;4.03;1.23;;;;;;;19.93;nan;100341.78;10361487;28;20137;-80
2023/10/22 12:14:49;;;;;;;3.13;1.23;;;;;;;18.25;nan;100333.97;10376146;28;20046;-81
2023/10/22 12:19:50;;;;;;;2.92;1.15;;;;;;;16.37;nan;100321.22;10376271;28;20481;-80
2023/10/22 12:24:51;;;;;;;2.22;0.90;;;;;;;15.66;nan;100313.00;10358862;28;20040;-81
2023/10/22 12:29:51;;;;;;;3.90;1.50;;;;;;;14.97;nan;100318.72;10350320;28;20493;-79
2023/10/22 12:34:52;;;;;;;2.83;0.60;;;;;;;14.37;nan;100321.75;10341017;28;20177;-78
2023/10/22 12:39:52;;;;;;;1.13;0.93;;;;;;;13.81;nan;100327.41;10332786;28;20060;-80
2023/10/22 12:44:53;;;;;;;2.47;1.13;;;;;;;13.62;nan;100365.47;10318823;28;20062;-81
2023/10/22 12:49:53;;;;;;;2.08;1.45;;;;;;;16.32;nan;100358.13;10357819;28;20546;-81
2023/10/22 12:54:54;;;;;;;3.42;2.20;;;;;;;18.81;nan;100295.47;10347750;28;20069;-85
2023/10/22 12:59:54;;;;;;;3.92;1.30;;;;;;;17.71;nan;100322.03;10358626;28;20120;-84
2023/10/22 13:04:55;;;;;;;1.65;0.57;;;;;;;17.23;nan;100310.06;10376564;28;20539;-83
2023/10/22 13:09:55;;;;;;;3.28;1.30;;;;;;;16.40;nan;100329.19;10359798;28;20050;-85
2023/10/22 13:14:56;;;;;;;2.25;1.25;;;;;;;15.19;nan;100340.25;10360486;28;20129;-84
2023/10/22 13:19:56;;;;;;;4.43;2.00;;;;;;;14.66;nan;100361.03;10355356;28;20114;-84
2023/10/22 13:24:57;;;;;;;3.13;1.55;;;;;;;14.33;nan;100369.03;10387839;28;20121;-84
2023/10/22 13:29:58;;;;;;;4.20;2.90;;;;;;;13.90;nan;100382.00;10374047;28;20045;-83
2023/10/22 13:34:59;;;;;;;2.90;1.70;;;;;;;13.76;nan;100392.16;10354296;28;20128;-84
2023/10/22 13:39:59;;;;;;;3.05;1.42;;;;;;;17.26;nan;100357.69;10357125;28;20069;-83
2023/10/22 13:45:00;;;;;;;2.17;1.30;;;;;;;17.06;nan;100354.78;10372739;28;20040;-83
2023/10/22 13:50:01;;;;;;;3.40;1.48;;;;;;;17.14;nan;100363.72;10357242;28;20099;-82
2023/10/22 13:55:02;;;;;;;1.98;1.10;;;;;;;16.18;nan;100375.47;10356287;28;20050;-83
2023/10/22 14:00:04;;;;;;;3.97;0.83;;;;;;;15.16;nan;100374.44;10342965;28;20037;-82
2023/10/22 14:05:09;;;;;;;3.42;1.38;;;;;;;15.88;nan;100369.72;10354681;28;20042;-83
2023/10/22 14:10:09;;;;;;;1.85;1.25;;;;;;;14.81;nan;100381.63;10340201;28;20049;-85
2023/10/22 14:15:10;;;;;;;4.25;1.67;;;;;;;14.41;nan;100409.59;10354758;28;20153;-83
2023/10/22 14:20:11;;;;;;;5.22;1.90;;;;;;;14.74;nan;100421.84;10360066;28;20121;-83
2023/10/22 14:25:11;;;;;;;3.13;1.65;;;;;;;14.48;nan;100408.91;10363159;28;20486;-83
2023/10/22 14:30:12;;;;;;;6.13;2.00;;;;;;;13.94;nan;100425.94;10347988;28;20129;-83
2023/10/22 14:35:12;;;;;;;7.13;1.90;;;;;;;13.67;nan;100448.00;10347823;28;20041;-83
2023/10/22 14:40:13;;;;;;;3.42;1.90;;;;;;;13.90;nan;100464.44;10364104;28;20124;-82
2023/10/22 14:45:13;;;;;;;2.60;1.63;;;;;;;14.75;nan;100439.44;10363531;28;20119;-81
2023/10/22 14:50:14;;;;;;;2.50;1.30;;;;;;;15.02;nan;100411.94;10377213;28;20115;-81
2023/10/22 14:55:14;;;;;;;8.90;4.07;;;;;;;14.33;nan;100425.19;10362086;28;20073;-84
2023/10/22 15:00:15;;;;;;;2.67;1.23;;;;;;;13.59;nan;100453.06;10361192;28;20050;-82
2023/10/22 15:05:16;;;;;;;3.53;1.50;;;;;;;12.96;nan;100470.44;10360969;28;20038;-80
2023/10/22 15:10:17;;;;;;;9.80;2.65;;;;;;;12.63;nan;100482.50;10363057;28;20038;-82
2023/10/22 15:15:17;;;;;;;9.40;2.17;;;;;;;12.64;nan;100514.91;10361226;28;20046;-84
2023/10/22 15:20:18;;;;;;;7.65;2.20;;;;;;;12.56;nan;100522.50;10358916;28;20116;-81
2023/10/22 15:25:18;;;;;;;3.15;1.70;;;;;;;12.41;nan;100522.00;10362361;28;20478;-81
2023/10/22 15:30:19;;;;;;;6.47;2.22;;;;;;;12.48;nan;100521.34;10345137;28;20113;-83
2023/10/22 15:35:19;;;;;;;6.40;1.70;;;;;;;12.34;nan;100515.66;10361025;28;20053;-81
2023/10/22 15:40:20;;;;;;;9.82;1.83;;;;;;;12.17;nan;100525.53;10355388;28;20080;-81
2023/10/22 15:45:21;;;;;;;6.75;1.52;;;;;;;11.92;nan;100529.84;10344166;28;20873;-87
2023/10/22 15:50:22;;;;;;;5.75;2.03;;;;;;;11.69;nan;100529.03;10336421;28;20053;-80
2023/10/22 15:55:23;;;;;;;9.43;2.35;;;;;;;11.51;nan;100537.97;10377535;28;20069;-80
2023/10/22 16:00:24;;;;;;;5.18;2.13;;;;;;;11.36;nan;100548.72;10342610;28;20124;-81
2023/10/22 16:05:25;;;;;;;6.80;2.20;;;;;;;11.27;nan;100551.00;10360070;28;20172;-81
2023/10/22 16:10:25;;;;;;;3.90;2.47;;;;;;;11.11;nan;100559.97;10343390;28;20046;-81
2023/10/22 16:15:26;;;;;;;6.40;2.80;;;;;;;10.90;nan;100560.88;10343477;28;20059;-79
2023/10/22 16:20:26;;;;;;;6.43;2.58;;;;;;;10.71;nan;100565.34;10359436;28;20038;-82
2023/10/22 16:25:27;;;;;;;3.65;2.60;;;;;;;10.62;nan;100580.66;10341955;28;20398;-82
2023/10/22 16:30:27;;;;;;;4.45;2.03;;;;;;;10.50;nan;100585.38;10359842;28;20129;-89
2023/10/22 16:35:30;;;;;;;3.05;2.28;;;;;;;10.49;nan;100588.81;10372069;28;20125;-87
2023/10/22 16:40:31;;;;;;;10.57;3.83;;;;;;;10.53;nan;100595.97;10359747;28;20041;-85
2023/10/22 16:45:32;;;;;;;13.90;4.50;;;;;;;10.62;nan;100603.31;10355380;28;20049;-84
2023/10/22 16:50:32;;;;;;;7.82;4.32;;;;;;;10.38;nan;100609.22;10359767;28;20454;-83
2023/10/22 16:55:34;;;;;;;9.18;4.00;;;;;;;10.27;nan;100614.88;10359487;28;20149;-82
2023/10/22 17:00:35;;;;;;;4.57;2.42;;;;;;;10.26;nan;100620.03;10373864;28;20490;-82
2023/10/22 17:05:50;;;;;;;7.53;3.10;;;;;;;10.13;100.00;100534.91;10502860;27;1421726;-85
2023/10/22 17:10:53;;;;;;;7.35;3.05;;;;;;;10.12;100.00;100539.25;10482722;28;20054;-86
2023/10/22 17:15:53;;;;;;;;;;;;;;;10.08;100.00;100555.63;10484500;28;20044;-86
2023/10/22 17:20:55;;;;;;;8.05;3.90;;;;;;;10.03;100.00;100567.59;10495728;28;19969;-84
2023/10/22 17:25:55;;;;;;;5.47;2.67;;;;;;;9.85;100.00;100578.09;10497548;28;20122;-84
2023/10/22 17:30:56;;;;;;;7.80;3.97;;;;;;;9.75;100.00;100573.28;10477431;28;20189;-83
2023/10/22 17:35:57;;;;;;;10.25;3.22;;;;;;;9.67;100.00;100592.09;10497788;28;20564;-86
2023/10/22 17:40:58;;;;;;;5.78;3.03;;;;;;;9.53;100.00;100596.69;10481624;28;20488;-87
2023/10/22 17:45:59;;;;;;;11.70;3.90;;;;;;;9.43;100.00;100593.56;10480043;28;20036;-83
2023/10/22 17:51:03;;;;;;;7.05;3.83;;;;;;;9.27;100.00;100605.88;10495074;28;20500;-87
2023/10/22 17:56:05;;;;;;;6.82;3.83;;;;;;;9.29;100.00;100622.53;10479426;28;20036;-84
2023/10/22 18:01:05;;;;;;;7.78;3.40;;;;;;;9.29;100.00;100634.69;10481310;28;20140;-86
2023/10/22 18:06:06;;;;;;;7.57;4.00;;;;;;;9.39;100.00;100640.44;10510868;28;20043;-81
2023/10/22 18:11:07;;;;;;;12.88;4.15;;;;;;;9.51;100.00;100647.06;10480421;28;20040;-87
2023/10/22 18:16:07;;;;;;;8.90;4.63;;;;;;;9.65;100.00;100650.38;10441687;28;20111;-85
2023/10/22 18:21:08;;;;;;;12.25;4.95;;;;;;;9.82;100.00;100657.28;10469522;28;20045;-80
2023/10/22 18:26:10;;;;;;;9.52;4.63;;;;;;;10.11;100.00;100670.81;10485105;28;20093;-83
2023/10/22 18:31:10;;;;;;;11.07;5.53;;;;;;;10.33;100.00;100676.13;10464856;28;20041;-84
2023/10/22 18:36:11;;;;;;;10.25;5.03;;;;;;;10.40;100.00;100687.00;10447958;28;20053;-82
2023/10/22 18:41:12;;;;;;;9.48;6.18;;;;;;;10.45;100.00;100678.47;10468322;28;20422;-82
2023/10/22 18:46:18;;;;;;;14.53;5.87;;;;;;;10.49;100.00;100686.50;10458834;28;20128;-81
2023/10/22 18:51:19;;;;;;;10.38;6.35;;;;;;;10.45;100.00;100678.47;10451722;28;20059;-80
2023/10/22 18:56:20;;;;;;;9.70;4.97;;;;;;;10.34;100.00;100680.53;10480556;28;20029;-81
2023/10/22 19:01:24;;;;;;;5.60;3.95;;;;;;;10.36;100.00;100681.50;10483904;28;20143;-80
2023/10/22 19:06:26;;;;;;;10.20;4.32;;;;;;;10.28;100.00;100679.44;10468462;28;20119;-80
2023/10/22 19:11:30;;;;;;;7.40;4.88;;;;;;;10.22;100.00;100675.66;10452187;28;20036;-81
2023/10/22 19:16:32;;;;;;;8.98;4.80;;;;;;;10.17;100.00;100688.50;10467187;28;20503;-82
2023/10/22 19:21:33;;;;;;;11.10;5.22;;;;;;;10.18;100.00;100690.28;10434731;28;20132;-83
2023/10/22 19:26:36;;;;;;;9.52;5.07;;;;;;;10.11;100.00;100690.84;10462594;28;20036;-83
2023/10/22 19:31:37;;;;;;;12.68;6.93;;;;;;;10.10;100.00;100697.81;10458446;28;20047;-82
2023/10/22 19:36:38;;;;;;;10.27;6.23;;;;;;;10.00;100.00;100706.03;10469105;28;20427;-82
2023/10/22 19:41:44;;;;;;;11.70;6.93;;;;;;;9.78;100.00;100709.31;10449369;28;20309;-81
2023/10/22 19:46:44;;;;;;;8.55;4.80;;;;;;;9.73;100.00;100718.66;10464200;28;20369;-80
2023/10/22 19:51:46;;;;;;;16.65;6.60;;;;;;;9.72;100.00;100727.31;10482473;28;20040;-82
2023/10/22 19:56:46;;;;;;;9.73;5.38;;;;;;;9.68;100.00;100723.69;10481784;28;20036;-82
2023/10/22 20:01:47;;;;;;;21.58;7.70;;;;;;;9.60;100.00;100727.63;10463822;28;20036;-82
2023/10/22 20:06:48;;;;;;;11.18;5.68;;;;;;;9.44;100.00;100723.34;10445294;28;20818;-81
2023/10/22 20:11:49;;;;;;;13.52;5.35;;;;;;;9.33;100.00;100731.53;10446189;28;20052;-81
2023/10/22 20:16:53;;;;;;;9.32;5.57;;;;;;;9.23;100.00;100734.50;10441473;28;20044;-81
2023/10/22 20:22:00;;;;;;;10.82;5.72;;;;;;;9.23;100.00;100740.63;10471624;28;20398;-82
2023/10/22 20:27:03;;;;;;;13.32;5.30;;;;;;;9.23;100.00;100743.25;10444720;28;20044;-81
2023/10/22 20:32:04;;;;;;;12.10;6.72;;;;;;;9.19;100.00;100746.53;10445085;28;20048;-81
2023/10/22 20:37:08;;;;;;;13.07;7.72;;;;;;;9.16;100.00;100748.06;10457562;28;20406;-81
2023/10/22 20:42:09;;;;;;;13.48;6.60;;;;;;;9.01;100.00;100749.06;10482838;28;20040;-82
2023/10/22 20:47:13;;;;;;;11.43;6.88;;;;;;;8.98;100.00;100746.28;10476819;28;20037;-83
2023/10/22 20:52:13;;;;;;;13.98;7.38;;;;;;;8.95;100.00;100756.56;10477958;28;20147;-83
2023/10/22 20:57:14;;;;;;;12.32;6.03;;;;;;;9.06;100.00;100759.75;10463295;28;20557;-83
2023/10/22 21:02:15;;;;;;;11.65;7.40;;;;;;;9.06;100.00;100747.59;10481148;28;20101;-82
2023/10/22 21:07:15;;;;;;;13.05;8.00;;;;;;;9.00;100.00;100759.44;10455362;28;20043;-82
2023/10/22 21:12:16;;;;;;;34.70;9.48;;;;;;;8.80;100.00;100759.28;10480767;28;20495;-82
2023/10/22 21:17:16;;;;;;;25.85;8.85;;;;;;;8.70;100.00;100757.00;10463520;28;20132;-82
2023/10/22 21:22:17;;;;;;;13.35;8.43;;;;;;;8.85;100.00;100763.03;10447737;28;20614;-82
2023/10/22 21:27:17;;;;;;;12.30;7.82;;;;;;;8.95;100.00;100764.41;10479246;28;20066;-82
2023/10/22 21:32:18;;;;;;;9.77;6.90;;;;;;;8.91;100.00;100765.06;10461652;28;20127;-82
2023/10/22 21:37:18;;;;;;;18.95;8.10;;;;;;;8.82;100.00;100758.53;10461217;28;20397;-82
2023/10/22 21:42:19;;;;;;;17.20;8.45;;;;;;;8.93;100.00;100759.13;10478993;28;20570;-82
2023/10/22 21:47:19;;;;;;;10.98;7.15;;;;;;;8.92;100.00;100767.78;10478833;28;20039;-81
2023/10/22 21:52:20;;;;;;;21.42;8.07;;;;;;;8.90;100.00;100769.41;10469783;28;20076;-83
2023/10/22 21:57:21;;;;;;;13.13;8.38;;;;;;;8.72;100.00;100771.03;10454595;28;20221;-83
2023/10/22 22:02:21;;;;;;;30.52;10.48;;;;;;;8.77;100.00;100783.50;10484097;28;20093;-83
2023/10/22 22:07:22;;;;;;;13.13;8.05;;;;;;;8.67;100.00;100781.22;10488112;28;20047;-82
2023/10/22 22:12:22;;;;;;;14.27;6.35;;;;;;;8.60;100.00;100781.69;10472321;28;20115;-82
2023/10/22 22:17:23;;;;;;;22.73;7.90;;;;;;;8.47;100.00;100783.59;10434419;28;20162;-82
2023/10/22 22:22:23;;;;;;;12.18;6.38;;;;;;;8.32;100.00;100783.66;10488428;28;20115;-82
2023/10/22 22:27:24;;;;;;;13.25;6.47;;;;;;;8.22;100.00;100771.81;10469610;28;20558;-82
2023/10/22 22:32:24;;;;;;;27.38;8.63;;;;;;;8.17;100.00;100773.25;10489504;28;20040;-82
2023/10/22 22:37:25;;;;;;;14.32;7.13;;;;;;;7.98;100.00;100773.94;10486255;28;20060;-82
2023/10/22 22:42:25;;;;;;;20.13;8.75;;;;;;;8.00;100.00;100764.50;10486635;28;20090;-82
2023/10/22 22:47:26;;;;;;;21.15;8.30;;;;;;;7.93;100.00;100776.28;10486709;28;20037;-83
2023/10/22 22:52:26;;;;;;;16.67;7.22;;;;;;;7.82;100.00;100790.41;10468594;28;20523;-82
2023/10/22 22:57:27;;;;;;;38.88;10.20;;;;;;;7.91;100.00;100785.72;10468137;28;20119;-83
2023/10/22 23:02:27;;;;;;;12.90;8.10;;;;;;;7.78;100.00;100797.16;10485692;28;20560;-82
2023/10/22 23:07:28;;;;;;;12.90;6.75;;;;;;;7.65;100.00;100794.66;10467924;28;20044;-82
2023/10/22 23:12:30;;;;;;;19.37;9.07;;;;;;;7.59;100.00;100797.78;10468507;28;20036;-82
2023/10/22 23:17:30;;;;;;;19.73;8.20;;;;;;;7.49;100.00;100806.78;10485312;28;20124;-81
2023/10/22 23:22:31;;;;;;;15.07;6.95;;;;;;;7.49;100.00;100795.44;10484663;28;20392;-83
2023/10/22 23:27:31;;;;;;;17.48;8.50;;;;;;;7.39;100.00;100806.13;10459713;28;20111;-83
2023/10/22 23:32:32;;;;;;;41.47;9.88;;;;;;;7.39;100.00;100799.22;10485615;28;20125;-83